Time;durP1;ratioP1;P1;durP2;ratioP2;P2;SDS_P1;SDS_P2;PMS_P1;PMS_P2;Temp;Humidity;BMP_temperature;BMP_pressure;BME280_temperature;BME280_humidity;BME280_pressure;Samples;Min_cycle;Max_cycle;Signal;HPM_P1;HPM_P2
2022/06/17 00:01:32;;;;;;;;;;;;;;;19.34;40.09;101263.31;4917836;28;120643;-61
2022/06/17 00:03:58;;;;;;;;;;;;;;;19.31;40.16;101267.47;4919188;28;98686;-66
2022/06/17 00:06:25;;;;;;;;;;;;;;;19.27;40.20;101269.19;4909132;28;127558;-61
2022/06/17 00:08:54;;;;;;;;;;;;;;;19.23;40.24;101265.44;4918584;28;121392;-61
2022/06/17 00:11:25;;;;;;;;;;;;;;;19.21;40.25;101281.31;4920139;28;128014;-61
2022/06/17 00:13:51;;;;;;;;;;;;;;;19.19;40.26;101274.56;4920372;28;106564;-61
2022/06/17 00:16:18;;;;;;;;;;;;;;;19.17;40.40;101274.06;4904016;28;127495;-61
2022/06/17 00:18:44;;;;;;;;;;;;;;;19.14;40.53;101272.75;4900629;28;118155;-66
2022/06/17 00:21:33;;;;;;;;;;;;;;;19.09;40.49;101281.84;4900173;28;127448;-61
2022/06/17 00:23:59;;;;;;;;;;;;;;;19.02;40.49;101281.47;4899908;28;99422;-61
2022/06/17 00:26:25;;;;;;;;;;;;;;;18.99;40.60;101281.25;4905772;28;97888;-61
2022/06/17 00:28:51;;;;;;;;;;;;;;;18.96;40.73;101277.22;4920041;28;122415;-61
2022/06/17 00:31:17;;;;;;;;;;;;;;;18.93;40.79;101279.75;4907282;28;127754;-61
2022/06/17 00:33:43;;;;;;;;;;;;;;;18.89;40.76;101288.53;4900544;28;128443;-61
2022/06/17 00:36:17;;;;;;;;;;;;;;;18.83;40.80;101284.31;4928401;28;123697;-61
2022/06/17 00:38:43;;;;;;;;;;;;;;;18.77;41.04;101282.75;4917514;28;98297;-66
2022/06/17 00:41:15;;;;;;;;;;;;;;;18.71;41.22;101283.19;4913021;28;98332;-61
2022/06/17 00:43:42;;;;;;;;;;;;;;;18.63;41.31;101273.75;4899235;28;98575;-61
2022/06/17 00:46:17;;;;;;;;;;;;;;;18.60;41.26;101277.06;4930593;28;99677;-66
2022/06/17 00:48:57;;;;;;;;;;;;;;;18.57;41.56;101285.84;4920763;28;97857;-61
2022/06/17 00:51:24;;;;;;;;;;;;;;;18.52;41.78;101285.97;4902676;28;124770;-66
2022/06/17 00:53:59;;;;;;;;;;;;;;;18.47;41.69;101286.03;4925902;28;126978;-66
2022/06/17 00:56:35;;;;;;;;;;;;;;;18.42;41.85;101291.59;4919607;28;97824;-61
2022/06/17 00:59:08;;;;;;;;;;;;;;;18.37;41.86;101287.84;4919780;28;116956;-66
2022/06/17 01:01:51;;;;;;;;;;;;;;;18.35;41.91;101287.34;4910312;28;121555;-61
2022/06/17 01:04:23;;;;;;;;;;;;;;;18.31;42.06;101289.06;4917376;28;98384;-61
2022/06/17 01:06:59;;;;;;;;;;;;;;;18.26;42.12;101294.56;4900383;28;98345;-61
2022/06/17 01:12:14;;;;;;;;;;;;;;;18.17;42.32;101304.56;4899895;28;98046;-66
2022/06/17 01:14:41;;;;;;;;;;;;;;;18.12;42.49;101301.94;4915189;28;98533;-61
2022/06/17 01:17:07;;;;;;;;;;;;;;;18.06;42.49;101298.47;4926919;28;98411;-66
2022/06/17 01:19:39;;;;;;;;;;;;;;;18.01;42.60;101304.00;4914350;28;107451;-66
2022/06/17 01:22:09;;;;;;;;;;;;;;;17.97;42.67;101304.91;4900551;28;103697;-61
2022/06/17 01:24:35;;;;;;;;;;;;;;;17.90;42.71;101311.53;4897717;28;121986;-65
2022/06/17 01:27:02;;;;;;;;;;;;;;;17.86;42.80;101310.50;4910192;28;129051;-66
2022/06/17 01:29:28;;;;;;;;;;;;;;;17.84;42.87;101320.06;4917675;28;97850;-61
2022/06/17 01:31:54;;;;;;;;;;;;;;;17.84;42.82;101314.63;4918724;28;128766;-66
2022/06/17 01:34:21;;;;;;;;;;;;;;;17.82;43.17;101314.13;4915654;28;125929;-66
2022/06/17 01:36:46;;;;;;;;;;;;;;;17.81;43.18;101315.22;4917037;28;98351;-66
2022/06/17 01:39:13;;;;;;;;;;;;;;;17.78;43.01;101321.25;4906719;28;123010;-61
2022/06/17 01:41:39;;;;;;;;;;;;;;;17.75;43.07;101321.84;4922056;28;100255;-66
2022/06/17 01:44:18;;;;;;;;;;;;;;;17.73;43.07;101319.41;4910862;28;128142;-66
2022/06/17 01:46:45;;;;;;;;;;;;;;;17.71;43.20;101318.88;4917553;28;98422;-61
2022/06/17 01:49:17;;;;;;;;;;;;;;;17.70;43.27;101316.44;4907753;28;109162;-66
2022/06/17 01:51:57;;;;;;;;;;;;;;;17.66;43.40;101321.66;4929300;28;98175;-61
2022/06/17 01:54:46;;;;;;;;;;;;;;;17.62;43.64;101323.38;4914690;28;118764;-61
2022/06/17 01:57:14;;;;;;;;;;;;;;;17.57;43.53;101326.16;4913649;28;98134;-61
2022/06/17 01:59:42;;;;;;;;;;;;;;;17.53;43.73;101331.41;4903152;28;97875;-65
2022/06/17 02:02:08;;;;;;;;;;;;;;;17.52;43.57;101337.94;4907219;28;122483;-66
2022/06/17 02:04:46;;;;;;;;;;;;;;;17.49;43.76;101343.16;4897354;28;128868;-66
2022/06/17 02:07:25;;;;;;;;;;;;;;;17.42;43.82;101346.25;4908023;28;121299;-66
2022/06/17 02:09:51;;;;;;;;;;;;;;;17.36;43.88;101337.31;4895509;28;98162;-66
2022/06/17 02:12:17;;;;;;;;;;;;;;;17.33;44.02;101345.25;4912709;28;128186;-65
2022/06/17 02:14:44;;;;;;;;;;;;;;;17.29;44.01;101347.78;4916862;28;116040;-66
2022/06/17 02:17:10;;;;;;;;;;;;;;;17.26;44.36;101361.16;4916779;28;102747;-61
2022/06/17 02:19:37;;;;;;;;;;;;;;;17.19;44.20;101356.06;4909108;28;116138;-61
2022/06/17 02:22:08;;;;;;;;;;;;;;;17.13;44.32;101347.16;4918432;28;125536;-66
2022/06/17 02:24:34;;;;;;;;;;;;;;;17.11;44.36;101357.50;4919599;28;98451;-61
2022/06/17 02:27:01;;;;;;;;;;;;;;;17.08;44.71;101366.25;4917374;28;98102;-61
2022/06/17 02:29:28;;;;;;;;;;;;;;;17.04;44.72;101361.69;4909131;28;120051;-61
2022/06/17 02:31:54;;;;;;;;;;;;;;;16.99;44.81;101359.81;4900164;28;124234;-61
2022/06/17 02:34:20;;;;;;;;;;;;;;;16.95;44.64;101357.97;4902458;28;127141;-66
2022/06/17 02:36:54;;;;;;;;;;;;;;;16.89;44.93;101360.72;4901949;28;126241;-61
2022/06/17 02:39:20;;;;;;;;;;;;;;;16.83;45.02;101359.16;4912013;28;120443;-66
2022/06/17 02:41:47;;;;;;;;;;;;;;;16.81;45.02;101355.91;4919110;28;127287;-61
2022/06/17 02:44:25;;;;;;;;;;;;;;;16.78;45.22;101359.22;4920882;28;110200;-67
2022/06/17 02:46:53;;;;;;;;;;;;;;;16.74;45.08;101360.91;4910811;28;98177;-61
2022/06/17 02:49:22;;;;;;;;;;;;;;;16.68;45.31;101362.81;4912131;28;120558;-66
2022/06/17 02:51:48;;;;;;;;;;;;;;;16.62;45.38;101369.41;4919675;28;98541;-61
2022/06/17 02:54:18;;;;;;;;;;;;;;;16.56;45.27;101356.13;4920267;28;98869;-61
2022/06/17 02:56:47;;;;;;;;;;;;;;;16.49;45.24;101367.34;4918634;28;128310;-66
2022/06/17 02:59:23;;;;;;;;;;;;;;;16.44;45.54;101361.94;4921069;28;120917;-61
2022/06/17 03:01:50;;;;;;;;;;;;;;;16.37;45.67;101359.53;4904584;28;108607;-61
2022/06/17 03:04:21;;;;;;;;;;;;;;;16.34;45.54;101356.56;4899701;28;126586;-66
2022/06/17 03:06:48;;;;;;;;;;;;;;;16.30;45.76;101353.63;4909474;28;123789;-61
2022/06/17 03:09:20;;;;;;;;;;;;;;;16.24;45.56;101357.47;4919193;28;97899;-66
2022/06/17 03:11:49;;;;;;;;;;;;;;;16.18;45.73;101372.19;4921919;28;98167;-65
2022/06/17 03:14:15;;;;;;;;;;;;;;;16.15;45.89;101364.59;4919663;28;113762;-61
2022/06/17 03:16:42;;;;;;;;;;;;;;;16.10;46.07;101370.91;4921355;28;98170;-61
2022/06/17 03:19:09;;;;;;;;;;;;;;;16.06;46.29;101363.59;4911801;28;97834;-61
2022/06/17 03:21:35;;;;;;;;;;;;;;;16.03;46.08;101367.69;4901766;28;125730;-66
2022/06/17 03:24:22;;;;;;;;;;;;;;;16.03;46.25;101366.88;4903737;28;98255;-61
2022/06/17 03:27:12;;;;;;;;;;;;;;;16.00;46.12;101375.59;4919848;28;97866;-66
2022/06/17 03:29:38;;;;;;;;;;;;;;;15.99;46.34;101369.34;4884985;28;97858;-61
2022/06/17 03:32:06;;;;;;;;;;;;;;;15.99;46.14;101363.09;4911634;28;127662;-61
2022/06/17 03:34:38;;;;;;;;;;;;;;;15.99;46.55;101365.81;4918644;28;127307;-66
2022/06/17 03:37:08;;;;;;;;;;;;;;;16.00;46.48;101370.16;4918438;28;120048;-60
2022/06/17 03:39:54;;;;;;;;;;;;;;;16.01;46.21;101367.16;4903123;28;98045;-62
2022/06/17 03:42:23;;;;;;;;;;;;;;;16.03;46.52;101359.50;4907788;28;98902;-66
2022/06/17 03:44:55;;;;;;;;;;;;;;;16.07;46.28;101373.38;4916733;28;122209;-66
2022/06/17 03:47:23;;;;;;;;;;;;;;;16.09;46.27;101376.63;4903477;28;97945;-61
2022/06/17 03:49:55;;;;;;;;;;;;;;;16.11;46.41;101377.97;4918745;28;97985;-66
2022/06/17 03:52:34;;;;;;;;;;;;;;;16.13;46.71;101383.13;4914894;28;98477;-61
2022/06/17 03:55:00;;;;;;;;;;;;;;;16.17;46.64;101378.75;4906579;28;124762;-61
2022/06/17 03:57:26;;;;;;;;;;;;;;;16.20;46.41;101380.91;4917614;28;127856;-66
2022/06/17 03:59:52;;;;;;;;;;;;;;;16.25;46.54;101374.63;4918729;28;112698;-66
2022/06/17 04:02:18;;;;;;;;;;;;;;;16.39;46.53;101383.75;4916653;28;98914;-65
2022/06/17 04:04:47;;;;;;;;;;;;;;;16.53;46.33;101381.19;4900221;28;112117;-60
2022/06/17 04:07:13;;;;;;;;;;;;;;;16.65;46.21;101390.59;4897513;28;98351;-65
2022/06/17 04:09:42;;;;;;;;;;;;;;;16.77;46.02;101390.25;4923507;28;97861;-61
2022/06/17 04:12:19;;;;;;;;;;;;;;;16.87;46.20;101394.81;4910991;28;98611;-67
2022/06/17 04:14:48;;;;;;;;;;;;;;;16.95;45.78;101390.66;4920942;28;98512;-61
2022/06/17 04:17:42;;;;;;;;;;;;;;;16.99;45.90;101392.50;4905045;28;102387;-61
2022/06/17 04:20:43;;;;;;;;;;;;;;;17.02;45.77;101400.09;4903432;28;98079;-66
2022/06/17 04:23:19;;;;;;;;;;;;;;;17.07;45.63;101404.69;4911499;28;126050;-66
2022/06/17 04:26:23;;;;;;;;;;;;;;;17.15;45.51;101404.84;4919749;28;98873;-66
2022/06/17 04:29:13;;;;;;;;;;;;;;;17.23;45.53;101402.59;4921136;28;98157;-61
2022/06/17 04:31:39;;;;;;;;;;;;;;;17.33;45.40;101407.94;4908402;28;98112;-66
2022/06/17 04:34:14;;;;;;;;;;;;;;;17.41;45.49;101407.31;4916812;28;127033;-65
2022/06/17 04:36:48;;;;;;;;;;;;;;;17.50;45.37;101418.38;4915109;28;98249;-65
2022/06/17 04:39:36;;;;;;;;;;;;;;;17.60;45.32;101420.97;4895773;28;105829;-66
2022/06/17 04:42:09;;;;;;;;;;;;;;;17.71;45.24;101422.47;4900976;28;98903;-61
2022/06/17 04:44:35;;;;;;;;;;;;;;;17.80;45.17;101418.03;4913700;28;127162;-61
2022/06/17 04:47:14;;;;;;;;;;;;;;;17.88;45.14;101424.72;4916452;28;99009;-65
2022/06/17 04:49:43;;;;;;;;;;;;;;;17.97;45.07;101425.72;4916447;28;98192;-61
2022/06/17 04:52:26;;;;;;;;;;;;;;;18.07;45.04;101427.47;4911950;28;99778;-66
2022/06/17 04:54:56;;;;;;;;;;;;;;;18.18;44.66;101434.41;4915150;28;101023;-61
2022/06/17 04:57:21;;;;;;;;;;;;;;;18.29;44.50;101429.63;4914406;28;117612;-65
2022/06/17 04:59:47;;;;;;;;;;;;;;;18.42;44.45;101430.78;4914535;28;128436;-67
2022/06/17 05:02:21;;;;;;;;;;;;;;;18.55;44.16;101432.75;4914674;28;97990;-61
2022/06/17 05:04:51;;;;;;;;;;;;;;;18.70;44.06;101440.72;4913072;28;98785;-66
2022/06/17 05:07:17;;;;;;;;;;;;;;;18.85;43.92;101431.47;4920117;28;98497;-61
2022/06/17 05:09:49;;;;;;;;;;;;;;;19.00;43.50;101433.13;4933862;28;98971;-66
2022/06/17 05:12:36;;;;;;;;;;;;;;;19.16;43.43;101441.84;4916196;28;97923;-61
2022/06/17 05:15:04;;;;;;;;;;;;;;;19.33;43.32;101440.13;4918541;28;98524;-66
2022/06/17 05:17:30;;;;;;;;;;;;;;;19.48;43.05;101430.03;4920064;28;99161;-61
2022/06/17 05:19:56;;;;;;;;;;;;;;;19.64;42.75;101434.09;4919334;28;125746;-61
2022/06/17 05:22:40;;;;;;;;;;;;;;;19.80;42.61;101429.13;4904826;28;120474;-66
2022/06/17 05:25:12;;;;;;;;;;;;;;;20.00;42.35;101425.13;4916738;28;126523;-67
2022/06/17 05:27:38;;;;;;;;;;;;;;;20.19;42.19;101424.97;4916290;28;125098;-66
2022/06/17 05:30:04;;;;;;;;;;;;;;;20.40;41.93;101426.13;4919010;28;127956;-66
2022/06/17 05:32:30;;;;;;;;;;;;;;;20.63;41.80;101434.38;4914692;28;118725;-61
2022/06/17 05:34:56;;;;;;;;;;;;;;;20.86;41.52;101429.69;4918704;28;127765;-61
2022/06/17 05:37:22;;;;;;;;;;;;;;;21.09;41.20;101423.84;4918568;28;127999;-61
2022/06/17 05:39:48;;;;;;;;;;;;;;;21.34;40.72;101435.28;4918637;28;126438;-61
2022/06/17 05:42:14;;;;;;;;;;;;;;;21.64;40.70;101439.06;4906513;28;97802;-66
2022/06/17 05:44:39;;;;;;;;;;;;;;;22.02;40.20;101439.31;4919646;28;128183;-66
2022/06/17 05:47:06;;;;;;;;;;;;;;;23.24;38.45;101440.03;4918415;28;125881;-61
2022/06/17 05:49:32;;;;;;;;;;;;;;;25.74;34.96;101437.31;4919594;28;98599;-66
2022/06/17 05:51:58;;;;;;;;;;;;;;;27.41;33.70;101437.66;4932830;28;98010;-61
2022/06/17 05:54:24;;;;;;;;;;;;;;;28.97;32.07;101452.44;4903393;28;98250;-66
2022/06/17 05:56:50;;;;;;;;;;;;;;;30.32;31.11;101454.53;4907816;28;120314;-66
2022/06/17 05:59:17;;;;;;;;;;;;;;;31.37;30.08;101456.44;4900982;28;97871;-61
2022/06/17 06:01:43;;;;;;;;;;;;;;;30.92;31.18;101450.03;4908942;28;97880;-61
2022/06/17 06:04:09;;;;;;;;;;;;;;;31.13;31.23;101455.03;4922617;28;102487;-63
2022/06/17 06:06:35;;;;;;;;;;;;;;;32.59;29.58;101450.34;4913385;28;127799;-66
2022/06/17 06:09:01;;;;;;;;;;;;;;;34.74;26.93;101452.78;4917668;28;127680;-61
2022/06/17 06:11:27;;;;;;;;;;;;;;;35.68;25.98;101459.22;4902419;28;122227;-66
2022/06/17 06:13:53;;;;;;;;;;;;;;;35.35;25.96;101458.72;4915346;28;98152;-66
2022/06/17 06:16:19;;;;;;;;;;;;;;;34.82;26.88;101460.72;4902566;28;127393;-66
2022/06/17 06:18:47;;;;;;;;;;;;;;;36.47;24.89;101465.53;4920814;28;119600;-61
2022/06/17 06:21:12;;;;;;;;;;;;;;;36.29;24.79;101457.31;4922334;28;98461;-66
2022/06/17 06:23:39;;;;;;;;;;;;;;;36.25;24.65;101453.78;4910767;28;126838;-61
2022/06/17 06:26:05;;;;;;;;;;;;;;;37.54;23.21;101452.59;4921284;28;111989;-62
2022/06/17 06:28:31;;;;;;;;;;;;;;;36.84;24.06;101453.34;4924019;28;98071;-66
2022/06/17 06:31:05;;;;;;;;;;;;;;;37.19;23.45;101447.59;4921698;28;121105;-66
2022/06/17 06:33:31;;;;;;;;;;;;;;;37.26;23.47;101448.28;4910956;28;98825;-66
2022/06/17 06:35:57;;;;;;;;;;;;;;;37.44;22.99;101445.16;4903306;28;108181;-62
2022/06/17 06:38:23;;;;;;;;;;;;;;;36.82;23.64;101438.13;4901373;28;126695;-62
2022/06/17 06:40:49;;;;;;;;;;;;;;;36.41;23.75;101446.75;4905099;28;120399;-62
2022/06/17 06:43:17;;;;;;;;;;;;;;;35.79;24.14;101446.69;4915571;28;123042;-61
2022/06/17 06:45:43;;;;;;;;;;;;;;;35.32;24.38;101445.53;4902381;28;98429;-67
2022/06/17 06:48:09;;;;;;;;;;;;;;;34.97;24.47;101441.81;4904439;28;98023;-66
2022/06/17 06:50:36;;;;;;;;;;;;;;;34.64;24.73;101441.25;4904590;28;111084;-66
2022/06/17 06:53:02;;;;;;;;;;;;;;;34.35;24.95;101443.41;4919049;28;98832;-61
2022/06/17 06:55:28;;;;;;;;;;;;;;;34.08;24.54;101447.91;4904135;28;121331;-62
2022/06/17 06:57:59;;;;;;;;;;;;;;;33.86;24.34;101447.16;4904221;28;108992;-62
2022/06/17 07:00:27;;;;;;;;;;;;;;;33.69;24.29;101446.00;4903035;28;110824;-66
2022/06/17 07:02:53;;;;;;;;;;;;;;;33.60;24.41;101451.22;4921082;28;119584;-66
2022/06/17 07:05:19;;;;;;;;;;;;;;;33.58;24.69;101442.44;4921551;28;128371;-62
2022/06/17 07:07:45;;;;;;;;;;;;;;;33.60;24.83;101442.81;4921026;28;98743;-61
2022/06/17 07:10:17;;;;;;;;;;;;;;;33.62;24.88;101452.41;4918587;28;122645;-61
2022/06/17 07:12:43;;;;;;;;;;;;;;;33.66;24.36;101447.59;4901711;28;125324;-62
2022/06/17 07:15:09;;;;;;;;;;;;;;;33.74;24.90;101451.19;4902084;28;107086;-62
2022/06/17 07:17:35;;;;;;;;;;;;;;;33.80;24.92;101452.38;4902276;28;97916;-66
2022/06/17 07:20:01;;;;;;;;;;;;;;;33.85;24.82;101448.38;4917221;28;122478;-62
2022/06/17 07:22:27;;;;;;;;;;;;;;;33.94;24.94;101449.53;4921372;28;128032;-62
2022/06/17 07:24:53;;;;;;;;;;;;;;;34.06;24.69;101458.69;4921473;28;99028;-61
2022/06/17 07:27:20;;;;;;;;;;;;;;;34.12;24.66;101452.28;4919932;28;127433;-62
2022/06/17 07:29:46;;;;;;;;;;;;;;;34.01;24.25;101465.50;4918513;28;122263;-68
2022/06/17 07:32:12;;;;;;;;;;;;;;;34.06;24.70;101467.09;4909365;28;98600;-66
2022/06/17 07:34:38;;;;;;;;;;;;;;;34.15;24.04;101464.66;4901625;28;121992;-68
2022/06/17 07:39:54;;;;;;;;;;;;;;;34.23;24.08;101466.22;4912107;28;97976;-61
2022/06/17 07:42:21;;;;;;;;;;;;;;;34.33;23.90;101475.78;4907171;28;97919;-62
2022/06/17 07:44:47;;;;;;;;;;;;;;;34.52;24.28;101466.13;4903412;28;99012;-66
2022/06/17 07:47:15;;;;;;;;;;;;;;;34.74;23.50;101473.16;4901381;28;98078;-67
2022/06/17 07:49:41;;;;;;;;;;;;;;;34.95;23.58;101474.25;4902771;28;98061;-61
2022/06/17 07:52:08;;;;;;;;;;;;;;;35.20;23.46;101476.88;4901840;28;98219;-68
2022/06/17 07:54:34;;;;;;;;;;;;;;;35.48;23.05;101485.00;4902864;28;98159;-62
2022/06/17 07:57:00;;;;;;;;;;;;;;;35.86;22.90;101480.25;4918969;28;126519;-66
2022/06/17 07:59:26;;;;;;;;;;;;;;;35.95;22.83;101476.94;4914944;28;121200;-67
2022/06/17 08:01:51;;;;;;;;;;;;;;;35.02;23.33;101477.00;4901373;28;127352;-66
2022/06/17 08:04:17;;;;;;;;;;;;;;;34.06;23.91;101469.88;4902174;28;100116;-62
2022/06/17 08:06:49;;;;;;;;;;;;;;;35.24;23.49;101484.03;4900913;28;126522;-62
2022/06/17 08:09:16;;;;;;;;;;;;;;;35.90;22.76;101474.59;4908858;28;97988;-67
2022/06/17 08:11:42;;;;;;;;;;;;;;;36.63;22.34;101481.75;4902064;28;122201;-67
2022/06/17 08:14:08;;;;;;;;;;;;;;;37.38;21.66;101482.59;4901650;28;127394;-66
2022/06/17 08:16:35;;;;;;;;;;;;;;;37.36;21.77;101477.38;4915816;28;127219;-62
2022/06/17 08:19:04;;;;;;;;;;;;;;;37.86;21.29;101481.31;4916506;28;98756;-66
2022/06/17 08:21:30;;;;;;;;;;;;;;;38.31;20.73;101479.59;4923232;28;97850;-68
2022/06/17 08:23:56;;;;;;;;;;;;;;;39.02;20.38;101482.03;4918882;28;116171;-61
2022/06/17 08:26:22;;;;;;;;;;;;;;;39.53;19.71;101480.31;4917747;28;127555;-62
2022/06/17 08:28:48;;;;;;;;;;;;;;;39.51;19.49;101474.34;4918257;28;122921;-66
2022/06/17 08:31:14;;;;;;;;;;;;;;;40.32;19.27;101483.00;4920101;28;128615;-67
2022/06/17 08:33:40;;;;;;;;;;;;;;;40.85;19.05;101489.81;4902345;28;127837;-62
2022/06/17 08:36:12;;;;;;;;;;;;;;;38.95;20.52;101485.06;4901487;28;126250;-59
2022/06/17 08:38:39;;;;;;;;;;;;;;;37.43;20.78;101482.13;4903446;28;97926;-66
2022/06/17 08:41:08;;;;;;;;;;;;;;;36.69;21.42;101491.28;4902555;28;98482;-60
2022/06/17 08:43:54;;;;;;;;;;;;;;;37.58;21.15;101481.44;4915863;28;98593;-65
2022/06/17 08:46:52;;;;;;;;;;;;;;;37.51;21.11;101490.00;4914609;28;98107;-60
2022/06/17 08:49:52;;;;;;;;;;;;;;;36.51;21.67;101493.53;4902468;28;98028;-60
2022/06/17 08:52:32;;;;;;;;;;;;;;;35.30;22.52;101485.19;4902181;28;98150;-65
2022/06/17 08:55:11;;;;;;;;;;;;;;;35.94;21.79;101489.38;4907986;28;121640;-60
2022/06/17 08:57:58;;;;;;;;;;;;;;;37.81;21.00;101491.06;4897538;28;127312;-61
2022/06/17 09:00:33;;;;;;;;;;;;;;;39.28;20.17;101494.31;4900725;28;97892;-61
2022/06/17 09:03:02;;;;;;;;;;;;;;;40.54;19.02;101492.41;4918208;28;98415;-60
2022/06/17 09:06:02;;;;;;;;;;;;;;;40.66;19.20;101493.66;4920986;28;104361;-60
2022/06/17 09:08:53;;;;;;;;;;;;;;;40.66;18.99;101499.31;4921379;28;98058;-60
2022/06/17 09:11:21;;;;;;;;;;;;;;;41.58;18.34;101491.84;4919108;28;97817;-65
2022/06/17 09:13:53;;;;;;;;;;;;;;;41.55;17.93;101492.78;4915511;28;98379;-60
2022/06/17 09:16:48;;;;;;;;;;;;;;;42.28;17.82;101487.66;4899352;28;126149;-66
2022/06/17 09:19:20;;;;;;;;;;;;;;;43.16;17.06;101493.06;4914127;28;98375;-60
2022/06/17 09:21:51;;;;;;;;;;;;;;;42.11;17.97;101478.59;4903107;28;98198;-60
2022/06/17 09:24:28;;;;;;;;;;;;;;;43.09;17.24;101479.97;4901908;28;100811;-60
2022/06/17 09:26:56;;;;;;;;;;;;;;;41.02;18.56;101467.09;4918366;28;125721;-65
2022/06/17 09:29:27;;;;;;;;;;;;;;;40.94;18.35;101472.97;4918814;28;98310;-65
2022/06/17 09:32:02;;;;;;;;;;;;;;;39.21;19.62;101461.41;4913638;28;115789;-60
2022/06/17 09:34:57;;;;;;;;;;;;;;;39.10;19.30;101463.72;4898585;28;100434;-66
2022/06/17 09:37:37;;;;;;;;;;;;;;;39.64;19.00;101465.16;4899293;28;98510;-65
2022/06/17 09:40:24;;;;;;;;;;;;;;;40.46;18.24;101455.13;4905112;28;98116;-65
2022/06/17 09:43:02;;;;;;;;;;;;;;;41.39;17.92;101466.22;4921153;28;97767;-65
2022/06/17 09:45:38;;;;;;;;;;;;;;;42.37;17.22;101464.28;4922342;28;98290;-60
2022/06/17 09:48:44;;;;;;;;;;;;;;;43.13;16.57;101462.81;4922460;28;97952;-60
2022/06/17 09:51:27;;;;;;;;;;;;;;;44.04;16.28;101456.34;4919080;28;127547;-65
2022/06/17 09:54:19;;;;;;;;;;;;;;;44.77;15.69;101455.28;4905002;28;97859;-65
2022/06/17 09:56:46;;;;;;;;;;;;;;;45.44;15.56;101455.97;4916810;28;97965;-65
2022/06/17 09:59:17;;;;;;;;;;;;;;;45.94;15.21;101452.47;4906172;28;98255;-66
2022/06/17 10:01:43;;;;;;;;;;;;;;;46.39;14.61;101445.47;4906691;28;105763;-65
2022/06/17 10:04:12;;;;;;;;;;;;;;;46.83;14.50;101438.84;4915342;28;117584;-60
2022/06/17 10:06:53;;;;;;;;;;;;;;;47.29;14.62;101434.53;4918320;28;127930;-65
2022/06/17 10:09:25;;;;;;;;;;;;;;;47.59;14.35;101432.25;4919510;28;102066;-65
2022/06/17 10:12:03;;;;;;;;;;;;;;;47.94;13.99;101430.00;4916890;28;97855;-60
2022/06/17 10:14:44;;;;;;;;;;;;;;;48.14;13.56;101416.94;4919105;28;98303;-65
2022/06/17 10:20:19;;;;;;;;;;;;;;;48.47;13.55;101418.47;4923624;28;97878;-61
2022/06/17 10:23:16;;;;;;;;;;;;;;;48.61;13.20;101414.63;4897498;28;118988;-60
2022/06/17 10:25:52;;;;;;;;;;;;;;;48.89;13.50;101409.88;4916966;28;97903;-66
2022/06/17 10:28:26;;;;;;;;;;;;;;;48.58;13.60;101396.47;4917753;28;98232;-61
2022/06/17 10:30:58;;;;;;;;;;;;;;;48.59;13.67;101403.72;4916849;28;98407;-60
2022/06/17 10:33:24;;;;;;;;;;;;;;;48.77;13.33;101396.81;4916557;28;98340;-61
2022/06/17 10:35:50;;;;;;;;;;;;;;;49.02;13.49;101391.44;4900894;28;122907;-60
2022/06/17 10:38:28;;;;;;;;;;;;;;;49.20;13.34;101395.94;4918364;28;127220;-60
2022/06/17 10:40:54;;;;;;;;;;;;;;;49.35;13.40;101385.03;4918113;28;98394;-65
2022/06/17 10:43:22;;;;;;;;;;;;;;;49.18;13.28;101385.00;4918575;28;125833;-65
2022/06/17 10:45:49;;;;;;;;;;;;;;;49.51;12.73;101380.66;4917384;28;98140;-65
2022/06/17 10:48:31;;;;;;;;;;;;;;;49.41;12.92;101382.97;4915326;28;102326;-61
2022/06/17 10:50:58;;;;;;;;;;;;;;;49.40;13.12;101375.66;4916288;28;123188;-61
2022/06/17 10:53:28;;;;;;;;;;;;;;;49.56;12.97;101377.00;4901215;28;120739;-61
2022/06/17 10:55:56;;;;;;;;;;;;;;;49.62;12.95;101374.94;4914056;28;98879;-61
2022/06/17 10:58:27;;;;;;;;;;;;;;;49.69;12.95;101373.66;4919528;28;110183;-66
2022/06/17 11:01:02;;;;;;;;;;;;;;;49.56;12.82;101359.84;4918511;28;100296;-66
2022/06/17 11:03:36;;;;;;;;;;;;;;;49.13;12.95;101354.31;4919220;28;98135;-61
2022/06/17 11:06:22;;;;;;;;;;;;;;;48.77;13.32;101353.13;4918927;28;98050;-66
2022/06/17 11:09:01;;;;;;;;;;;;;;;48.22;13.24;101354.41;4908967;28;99401;-66
2022/06/17 11:12:05;;;;;;;;;;;;;;;48.25;13.63;101347.66;4913519;28;98406;-61
2022/06/17 11:14:48;;;;;;;;;;;;;;;48.16;13.28;101351.53;4918599;28;98054;-65
2022/06/17 11:17:20;;;;;;;;;;;;;;;48.09;13.75;101346.28;4913277;28;99128;-61
2022/06/17 11:19:50;;;;;;;;;;;;;;;48.22;13.30;101349.47;4918225;28;98240;-61
2022/06/17 11:22:18;;;;;;;;;;;;;;;48.32;13.27;101355.75;4914624;28;98110;-61
2022/06/17 11:24:52;;;;;;;;;;;;;;;48.21;13.47;101341.41;4918067;28;120346;-66
2022/06/17 11:27:30;;;;;;;;;;;;;;;47.87;13.25;101339.13;4901075;28;99040;-61
2022/06/17 11:30:09;;;;;;;;;;;;;;;47.57;13.43;101332.09;4918226;28;98728;-61
2022/06/17 11:32:35;;;;;;;;;;;;;;;47.13;13.56;101334.00;4912028;28;127040;-61
2022/06/17 11:35:21;;;;;;;;;;;;;;;46.89;13.65;101322.03;4918031;28;98781;-61
2022/06/17 11:37:48;;;;;;;;;;;;;;;46.74;13.96;101320.06;4915004;28;109932;-66
2022/06/17 11:40:21;;;;;;;;;;;;;;;46.39;13.86;101313.66;4914942;28;99322;-61
2022/06/17 11:42:52;;;;;;;;;;;;;;;45.97;14.18;101309.16;4910614;28;99108;-61
2022/06/17 11:45:34;;;;;;;;;;;;;;;45.82;14.32;101311.25;4917750;28;98245;-61
2022/06/17 11:48:18;;;;;;;;;;;;;;;45.55;14.66;101301.72;4917871;28;98062;-66
2022/06/17 11:51:06;;;;;;;;;;;;;;;44.97;14.89;101303.25;4915731;28;99267;-67
2022/06/17 11:53:33;;;;;;;;;;;;;;;44.52;15.13;101305.16;4914347;28;97983;-61
2022/06/17 11:55:59;;;;;;;;;;;;;;;44.23;15.09;101306.56;4898860;28;98553;-65
2022/06/17 11:58:25;;;;;;;;;;;;;;;44.02;14.91;101293.44;4916844;28;97875;-66
2022/06/17 12:00:52;;;;;;;;;;;;;;;43.84;14.71;101286.56;4916396;28;127537;-60
2022/06/17 12:03:34;;;;;;;;;;;;;;;43.58;14.80;101300.34;4914176;28;98310;-65
2022/06/17 12:06:01;;;;;;;;;;;;;;;43.55;15.16;101292.81;4918572;28;98369;-65
2022/06/17 12:08:37;;;;;;;;;;;;;;;43.63;15.37;101296.13;4914505;28;98509;-61
2022/06/17 12:11:10;;;;;;;;;;;;;;;43.87;14.90;101298.25;4914387;28;127148;-66
2022/06/17 12:13:39;;;;;;;;;;;;;;;44.00;15.14;101302.44;4898631;28;111927;-61
2022/06/17 12:16:11;;;;;;;;;;;;;;;44.06;15.10;101299.75;4914748;28;124742;-66
2022/06/17 12:18:40;;;;;;;;;;;;;;;44.04;14.84;101305.88;4895976;28;98186;-66
2022/06/17 12:21:43;;;;;;;;;;;;;;;44.13;15.14;101298.59;4898311;28;99085;-66
2022/06/17 12:24:17;;;;;;;;;;;;;;;43.96;15.07;101296.16;4917755;28;115809;-66
2022/06/17 12:27:01;;;;;;;;;;;;;;;43.84;15.44;101285.78;4915516;28;98721;-65
2022/06/17 12:29:31;;;;;;;;;;;;;;;43.56;15.46;101291.56;4912079;28;121894;-65
2022/06/17 12:32:09;;;;;;;;;;;;;;;43.48;15.12;101286.69;4897607;28;127605;-61
2022/06/17 12:35:02;;;;;;;;;;;;;;;43.43;14.91;101267.44;4916391;28;98266;-61
2022/06/17 12:37:33;;;;;;;;;;;;;;;43.26;15.05;101279.16;4914342;28;98595;-66
2022/06/17 12:40:06;;;;;;;;;;;;;;;43.14;15.46;101282.97;4914178;28;98045;-60
2022/06/17 12:42:41;;;;;;;;;;;;;;;43.10;15.51;101288.78;4914408;28;99124;-61
2022/06/17 12:45:34;;;;;;;;;;;;;;;43.07;15.67;101286.09;4915126;28;105125;-61
2022/06/17 12:48:07;;;;;;;;;;;;;;;42.81;15.17;101277.94;4912456;28;98415;-60
2022/06/17 12:53:54;;;;;;;;;;;;;;;42.39;15.62;101274.88;4912414;28;98199;-66
2022/06/17 12:56:23;;;;;;;;;;;;;;;41.91;16.06;101278.03;4912626;28;124156;-65
2022/06/17 12:58:59;;;;;;;;;;;;;;;41.34;16.36;101273.75;4917075;28;101969;-64
2022/06/17 13:01:34;;;;;;;;;;;;;;;41.34;16.23;101279.41;4915948;28;97938;-60
2022/06/17 13:04:13;;;;;;;;;;;;;;;41.30;16.26;101273.88;4914383;28;98939;-61
2022/06/17 13:07:05;;;;;;;;;;;;;;;41.07;16.07;101269.50;4916632;28;97994;-67